createdAt,value
2018-12-08T00:01:33.220Z,82.13
2018-12-08T00:04:01.805Z,72.37
2018-12-08T00:06:30.432Z,69.30
2018-12-08T00:08:59.005Z,83.13
2018-12-08T00:11:27.587Z,68.37
2018-12-08T00:13:56.180Z,76.23
2018-12-08T00:16:24.925Z,70.90
2018-12-08T00:18:53.516Z,81.73
2018-12-08T00:21:22.144Z,71.33
2018-12-08T00:23:50.701Z,66.13
2018-12-08T00:26:19.312Z,64.57
2018-12-08T00:28:47.846Z,66.93
2018-12-08T00:31:27.680Z,68.97
2018-12-08T00:33:56.257Z,61.90
2018-12-08T00:36:24.848Z,71.63
2018-12-08T00:38:53.448Z,65.57
2018-12-08T00:41:22.044Z,63.43
2018-12-08T00:43:50.621Z,69.50
2018-12-08T00:46:19.221Z,64.20
2018-12-08T00:48:47.797Z,67.20
2018-12-08T00:51:16.724Z,76.87
2018-12-08T00:53:45.320Z,76.50
2018-12-08T00:56:13.888Z,65.33
2018-12-08T00:58:42.412Z,66.13
2018-12-08T01:01:11.067Z,70.07
2018-12-08T01:03:39.767Z,70.63
2018-12-08T01:06:08.345Z,71.63
2018-12-08T01:08:36.957Z,72.40
2018-12-08T01:11:05.545Z,66.87
2018-12-08T01:13:34.141Z,70.77
2018-12-08T01:16:03.601Z,65.67
2018-12-08T01:18:32.165Z,68.40
2018-12-08T01:21:00.751Z,65.60
2018-12-08T01:23:29.328Z,68.10
2018-12-08T01:25:57.904Z,71.10
2018-12-08T01:28:26.493Z,61.37
2018-12-08T01:30:55.069Z,73.10
2018-12-08T01:33:23.648Z,67.13
2018-12-08T01:35:52.264Z,68.13
2018-12-08T01:38:21.161Z,71.33
2018-12-08T01:40:49.724Z,63.90
2018-12-08T01:43:18.330Z,56.43
2018-12-08T01:45:46.881Z,63.70
2018-12-08T01:48:15.497Z,66.83
2018-12-08T01:50:44.069Z,63.80
2018-12-08T01:53:12.673Z,67.97
2018-12-08T01:55:41.257Z,65.07
2018-12-08T01:58:09.824Z,61.10
2018-12-08T02:00:38.436Z,63.00
2018-12-08T02:03:07.012Z,62.33
2018-12-08T02:05:35.609Z,67.03
2018-12-08T02:08:04.196Z,65.93
2018-12-08T02:10:32.896Z,69.60
2018-12-08T02:13:01.464Z,69.63
2018-12-08T02:15:30.065Z,62.80
2018-12-08T02:17:58.644Z,63.07
2018-12-08T02:20:27.228Z,60.00
2018-12-08T02:22:55.816Z,61.33
2018-12-08T02:25:24.416Z,68.37
2018-12-08T02:27:52.997Z,58.50
2018-12-08T02:30:21.562Z,57.03
2018-12-08T02:32:50.312Z,58.60
2018-12-08T02:35:18.880Z,58.47
2018-12-08T02:37:47.457Z,56.10
2018-12-08T02:40:16.033Z,57.00
2018-12-08T02:42:44.632Z,49.83
2018-12-08T02:45:13.362Z,59.50
2018-12-08T02:47:41.948Z,56.47
2018-12-08T02:50:10.542Z,61.27
2018-12-08T02:52:39.107Z,57.70
2018-12-08T02:55:07.748Z,53.73
2018-12-08T02:57:36.337Z,57.20
2018-12-08T03:00:06.101Z,51.53
2018-12-08T03:02:35.039Z,51.60
2018-12-08T03:05:04.287Z,51.57
2018-12-08T03:07:32.861Z,54.83
2018-12-08T03:10:01.452Z,50.97
2018-12-08T03:12:30.012Z,46.07
2018-12-08T03:14:58.576Z,52.30
2018-12-08T03:17:27.156Z,57.43
2018-12-08T03:19:55.736Z,51.80
2018-12-08T03:22:24.341Z,51.30
2018-12-08T03:24:52.945Z,58.03
2018-12-08T03:27:21.545Z,51.43
2018-12-08T03:29:50.135Z,58.70
2018-12-08T03:32:18.718Z,61.10
2018-12-08T03:34:47.315Z,55.27
2018-12-08T03:37:15.917Z,56.57
2018-12-08T03:39:44.624Z,62.07
2018-12-08T03:42:13.181Z,61.77
2018-12-08T03:44:42.155Z,53.40
2018-12-08T03:47:10.760Z,58.80
2018-12-08T03:49:39.347Z,50.10
2018-12-08T03:52:08.052Z,58.03
2018-12-08T03:54:36.609Z,51.63
2018-12-08T03:57:05.206Z,53.70
2018-12-08T03:59:33.778Z,53.97
2018-12-08T04:02:02.392Z,44.17
2018-12-08T04:04:30.986Z,50.37
2018-12-08T04:07:00.508Z,45.83
2018-12-08T04:09:29.068Z,40.93
2018-12-08T04:11:57.657Z,32.40
2018-12-08T04:14:26.281Z,36.07
2018-12-08T04:16:54.856Z,35.73
2018-12-08T04:19:23.437Z,28.67
2018-12-08T04:21:52.104Z,31.03
2018-12-08T04:24:20.738Z,26.93
2018-12-08T04:26:49.318Z,26.03
2018-12-08T04:29:17.889Z,24.60
2018-12-08T04:31:46.487Z,24.87
2018-12-08T04:34:15.065Z,21.60
2018-12-08T04:36:43.672Z,24.37
2018-12-08T04:39:12.243Z,26.07
2018-12-08T04:41:40.855Z,23.23
2018-12-08T04:44:09.428Z,21.93
2018-12-08T04:46:38.024Z,22.97
2018-12-08T04:49:06.621Z,21.37
2018-12-08T04:51:35.221Z,20.23
2018-12-08T04:54:03.808Z,19.40
2018-12-08T04:56:32.406Z,22.23
2018-12-08T04:59:00.972Z,19.70
2018-12-08T05:01:29.552Z,19.87
2018-12-08T05:03:58.152Z,19.23
2018-12-08T05:06:26.737Z,19.63
2018-12-08T05:08:55.315Z,20.07
2018-12-08T05:11:23.912Z,19.50
2018-12-08T05:13:52.761Z,25.80
2018-12-08T05:16:21.353Z,21.53
2018-12-08T05:18:49.951Z,18.13
2018-12-08T05:21:18.531Z,18.30
2018-12-08T05:23:47.100Z,22.30
2018-12-08T05:26:15.683Z,18.20
2018-12-08T05:28:44.262Z,17.93
2018-12-08T05:31:12.852Z,23.73
2018-12-08T05:33:41.428Z,19.43
2018-12-08T05:36:10.001Z,20.10
2018-12-08T05:38:38.567Z,18.30
2018-12-08T05:41:07.161Z,24.33
2018-12-08T05:43:35.764Z,22.73
2018-12-08T05:46:04.399Z,22.80
2018-12-08T05:48:32.997Z,21.10
2018-12-08T05:51:02.485Z,24.03
2018-12-08T05:53:31.096Z,21.27
2018-12-08T05:55:59.673Z,23.30
2018-12-08T05:58:28.694Z,22.97
2018-12-08T06:00:57.356Z,21.87
2018-12-08T06:03:25.929Z,23.07
2018-12-08T06:05:55.096Z,24.30
2018-12-08T06:08:23.684Z,22.33
2018-12-08T06:10:52.259Z,23.20
2018-12-08T06:13:20.855Z,24.60
2018-12-08T06:15:49.421Z,24.00
2018-12-08T06:18:17.993Z,23.07
2018-12-08T06:20:46.603Z,23.03
2018-12-08T06:23:15.160Z,22.67
2018-12-08T06:25:43.732Z,33.23
2018-12-08T06:28:17.825Z,29.60
2018-12-08T06:30:46.453Z,29.00
2018-12-08T06:33:15.148Z,30.47
2018-12-08T06:35:43.754Z,36.97
2018-12-08T06:38:12.333Z,34.33
2018-12-08T06:40:40.915Z,34.98
2018-12-08T06:43:09.473Z,27.80
2018-12-08T06:45:38.417Z,30.10
2018-12-08T06:48:07.068Z,28.47
2018-12-08T06:50:35.671Z,27.30
2018-12-08T06:53:04.389Z,28.90
2018-12-08T06:55:32.988Z,22.93
2018-12-08T06:58:02.080Z,24.83
2018-12-08T07:00:30.651Z,22.47
2018-12-08T07:02:59.268Z,25.30
2018-12-08T07:05:27.845Z,25.20
2018-12-08T07:07:56.416Z,26.13
2018-12-08T07:10:25.018Z,28.73
2018-12-08T07:12:53.593Z,27.77
2018-12-08T07:15:22.192Z,28.83
2018-12-08T07:17:50.781Z,33.00
2018-12-08T07:20:19.404Z,31.27
2018-12-08T07:22:47.972Z,33.77
2018-12-08T07:25:16.528Z,30.87
2018-12-08T07:27:45.116Z,36.60
2018-12-08T07:30:13.817Z,38.30
2018-12-08T07:32:42.527Z,36.98
2018-12-08T07:35:11.117Z,40.37
2018-12-08T07:37:39.704Z,41.67
2018-12-08T07:40:09.329Z,43.25
2018-12-08T07:42:37.929Z,37.70
2018-12-08T07:45:07.468Z,42.10
2018-12-08T07:47:36.081Z,41.73
2018-12-08T07:50:06.594Z,47.53
2018-12-08T07:52:35.185Z,45.03
2018-12-08T07:55:04.452Z,54.33
2018-12-08T07:57:33.058Z,60.65
2018-12-08T08:00:01.745Z,64.37
2018-12-08T08:02:30.274Z,57.20
2018-12-08T08:04:58.880Z,62.70
2018-12-08T08:07:27.476Z,78.15
2018-12-08T08:09:56.049Z,75.90
2018-12-08T08:12:25.024Z,83.22
2018-12-08T08:14:53.617Z,82.37
2018-12-08T08:17:22.286Z,85.37
2018-12-08T08:19:50.871Z,86.20
2018-12-08T08:22:19.436Z,93.57
2018-12-08T08:24:48.050Z,88.37
2018-12-08T08:27:16.625Z,98.57
2018-12-08T08:29:45.197Z,88.70
2018-12-08T08:32:15.575Z,87.50
2018-12-08T08:34:44.146Z,82.63
2018-12-08T08:37:22.646Z,78.73
2018-12-08T08:39:51.281Z,98.07
2018-12-08T08:42:20.217Z,102.37
2018-12-08T08:44:48.798Z,87.73
2018-12-08T08:47:18.248Z,99.63
2018-12-08T08:49:47.416Z,84.57
2018-12-08T08:52:15.988Z,80.83
2018-12-08T08:54:44.583Z,85.50
2018-12-08T08:57:13.265Z,86.10
2018-12-08T08:59:42.060Z,82.53
2018-12-08T09:02:10.706Z,80.13
2018-12-08T09:04:39.377Z,78.73
2018-12-08T09:07:07.965Z,86.28
2018-12-08T09:09:37.153Z,85.43
2018-12-08T09:12:06.053Z,77.50
2018-12-08T09:14:34.976Z,69.03
2018-12-08T09:17:04.445Z,66.43
2018-12-08T09:19:33.065Z,72.93
2018-12-08T09:22:01.627Z,73.90
2018-12-08T09:24:30.217Z,70.33
2018-12-08T09:26:58.816Z,72.13
2018-12-08T09:29:27.401Z,71.53
2018-12-08T09:31:55.951Z,75.80
2018-12-08T09:34:24.553Z,59.50
2018-12-08T09:36:53.198Z,61.73
2018-12-08T09:39:21.784Z,49.07
2018-12-08T09:41:50.672Z,53.80
2018-12-08T09:44:19.256Z,44.17
2018-12-08T09:46:47.840Z,51.97
2018-12-08T09:49:16.436Z,38.37
2018-12-08T09:51:45.028Z,44.37
2018-12-08T09:54:13.622Z,35.50
2018-12-08T09:56:42.228Z,35.50
2018-12-08T09:59:10.813Z,43.37
2018-12-08T10:01:39.448Z,43.80
2018-12-08T10:04:07.989Z,42.73
2018-12-08T10:06:36.633Z,42.23
2018-12-08T10:09:06.427Z,46.80
2018-12-08T10:11:35.006Z,44.20
2018-12-08T10:14:03.728Z,43.20
2018-12-08T10:16:32.981Z,35.33
2018-12-08T10:19:01.556Z,35.30
2018-12-08T10:21:30.124Z,39.73
2018-12-08T10:23:59.158Z,38.13
2018-12-08T10:26:27.727Z,41.93
2018-12-08T10:28:56.330Z,32.90
2018-12-08T10:31:24.924Z,39.77
2018-12-08T10:33:53.511Z,37.87
2018-12-08T10:36:22.085Z,37.57
2018-12-08T10:38:50.680Z,34.67
2018-12-08T10:41:19.298Z,34.10
2018-12-08T10:43:48.075Z,34.07
2018-12-08T10:46:16.673Z,39.23
2018-12-08T10:48:45.264Z,38.13
2018-12-08T10:51:14.585Z,69.13
2018-12-08T10:53:43.163Z,51.17
2018-12-08T10:56:11.778Z,59.97
2018-12-08T10:58:40.356Z,63.50
2018-12-08T11:01:14.388Z,57.67
2018-12-08T11:03:50.736Z,50.50
2018-12-08T11:06:19.589Z,41.97
2018-12-08T11:08:48.240Z,37.73
2018-12-08T11:11:16.856Z,39.93
2018-12-08T11:13:45.435Z,34.90
2018-12-08T11:16:14.039Z,32.43
2018-12-08T11:18:42.622Z,28.93
2018-12-08T11:21:11.193Z,27.57
2018-12-08T11:23:39.845Z,22.00
2018-12-08T11:26:08.448Z,19.40
2018-12-08T11:28:37.026Z,17.80
2018-12-08T11:31:05.638Z,19.53
2018-12-08T11:33:34.252Z,17.57
2018-12-08T11:36:02.840Z,16.13
2018-12-08T11:38:31.445Z,15.10
2018-12-08T11:41:00.039Z,16.70
2018-12-08T11:43:28.596Z,15.43
2018-12-08T11:45:57.198Z,16.00
2018-12-08T11:48:25.762Z,11.93
2018-12-08T11:50:54.476Z,12.57
2018-12-08T11:53:23.188Z,12.43
2018-12-08T11:55:51.745Z,14.33
2018-12-08T11:58:20.341Z,14.37
2018-12-08T12:00:48.929Z,14.30
2018-12-08T12:03:17.666Z,12.03
2018-12-08T12:05:46.249Z,17.97
2018-12-08T12:08:14.813Z,10.63
2018-12-08T12:10:43.413Z,11.67
2018-12-08T12:13:12.451Z,11.90
2018-12-08T12:15:41.017Z,12.17
2018-12-08T12:18:09.594Z,13.23
2018-12-08T12:20:38.209Z,14.43
2018-12-08T12:23:06.778Z,10.00
2018-12-08T12:25:35.500Z,9.50
2018-12-08T12:28:04.451Z,9.40
2018-12-08T12:30:33.148Z,9.20
2018-12-08T12:33:01.731Z,10.80
2018-12-08T12:35:30.317Z,10.63
2018-12-08T12:37:58.884Z,8.93
2018-12-08T12:40:27.460Z,9.97
2018-12-08T12:42:56.036Z,7.47
2018-12-08T12:45:24.612Z,9.37
2018-12-08T12:47:53.176Z,10.57
2018-12-08T12:50:21.767Z,7.43
2018-12-08T12:52:50.318Z,8.77
2018-12-08T12:55:18.870Z,5.23
2018-12-08T12:57:47.485Z,7.30
2018-12-08T13:00:16.060Z,5.90
2018-12-08T13:02:44.620Z,5.80
2018-12-08T13:05:13.217Z,6.20
2018-12-08T13:07:41.780Z,5.97
2018-12-08T13:10:10.356Z,8.70
2018-12-08T13:12:39.094Z,7.80
2018-12-08T13:15:07.728Z,5.87
2018-12-08T13:17:36.307Z,4.90
2018-12-08T13:20:05.218Z,5.10
2018-12-08T13:22:33.793Z,6.13
2018-12-08T13:25:13.566Z,6.10
2018-12-08T13:27:42.148Z,5.07
2018-12-08T13:30:10.745Z,6.20
2018-12-08T13:32:39.312Z,6.70
2018-12-08T13:35:11.725Z,7.23
2018-12-08T13:37:40.284Z,8.50
2018-12-08T13:40:08.876Z,4.43
2018-12-08T13:42:37.448Z,6.60
2018-12-08T13:45:17.394Z,5.00
2018-12-08T13:47:45.980Z,6.00
2018-12-08T13:50:14.600Z,8.47
2018-12-08T13:52:43.177Z,6.33
2018-12-08T13:55:11.761Z,4.97
2018-12-08T13:57:40.329Z,4.67
2018-12-08T14:00:09.804Z,6.50
2018-12-08T14:02:38.376Z,5.00
2018-12-08T14:05:07.672Z,4.63
2018-12-08T14:07:36.237Z,4.60
2018-12-08T14:10:05.668Z,9.67
2018-12-08T14:12:34.269Z,6.20
2018-12-08T14:15:02.880Z,6.67
2018-12-08T14:17:31.456Z,5.17
2018-12-08T14:20:40.245Z,4.90
2018-12-08T14:23:08.805Z,5.60
2018-12-08T14:25:37.464Z,5.53
2018-12-08T14:28:06.696Z,5.50
2018-12-08T14:30:35.368Z,4.77
2018-12-08T14:33:03.941Z,7.27
2018-12-08T14:35:32.541Z,4.20
2018-12-08T14:38:01.116Z,3.40
2018-12-08T14:40:29.716Z,4.73
2018-12-08T14:42:58.341Z,4.80
2018-12-08T14:45:26.908Z,4.50
2018-12-08T14:47:55.493Z,5.60
2018-12-08T14:50:24.078Z,3.63
2018-12-08T14:52:52.677Z,4.83
2018-12-08T14:55:21.252Z,4.90
2018-12-08T14:57:49.821Z,6.40
2018-12-08T15:00:18.422Z,3.83
2018-12-08T15:02:47.004Z,6.60
2018-12-08T15:05:15.580Z,3.87
2018-12-08T15:07:44.196Z,6.03
2018-12-08T15:10:13.337Z,4.73
2018-12-08T15:12:41.941Z,4.83
2018-12-08T15:15:10.988Z,5.30
2018-12-08T15:17:39.555Z,5.73
2018-12-08T15:20:09.498Z,6.40
2018-12-08T15:22:38.240Z,5.80
2018-12-08T15:25:08.945Z,5.87
2018-12-08T15:27:38.024Z,7.53
2018-12-08T15:30:08.376Z,5.43
2018-12-08T15:32:36.976Z,10.50
2018-12-08T15:35:08.020Z,5.30
2018-12-08T15:37:36.600Z,4.97
2018-12-08T15:40:06.373Z,8.70
2018-12-08T15:42:34.931Z,6.10
2018-12-08T15:45:03.840Z,4.70
2018-12-08T15:47:32.404Z,6.00
2018-12-08T15:50:00.984Z,10.70
2018-12-08T15:52:29.608Z,8.57
2018-12-08T15:54:58.232Z,9.30
2018-12-08T15:57:26.789Z,6.10
2018-12-08T15:59:55.393Z,5.70
2018-12-08T16:02:24.209Z,7.07
2018-12-08T16:04:52.960Z,10.20
2018-12-08T16:07:21.542Z,7.07
2018-12-08T16:09:50.109Z,8.17
2018-12-08T16:12:18.717Z,9.90
2018-12-08T16:14:47.294Z,10.50
2018-12-08T16:17:15.888Z,7.40
2018-12-08T16:19:44.471Z,8.60
2018-12-08T16:22:13.028Z,8.73
2018-12-08T16:24:41.608Z,17.07
2018-12-08T16:27:10.266Z,11.30
2018-12-08T16:29:38.829Z,10.57
2018-12-08T16:32:07.437Z,12.30
2018-12-08T16:34:36.353Z,8.40
2018-12-08T16:37:11.640Z,8.07
2018-12-08T16:39:40.254Z,7.87
2018-12-08T16:42:08.847Z,8.67
2018-12-08T16:44:37.418Z,6.93
2018-12-08T16:47:06.009Z,7.93
2018-12-08T16:49:34.582Z,8.10
2018-12-08T16:52:03.197Z,10.13
2018-12-08T16:54:31.751Z,11.07
2018-12-08T16:57:00.377Z,11.60
2018-12-08T16:59:28.956Z,8.40
2018-12-08T17:01:57.535Z,9.10
2018-12-08T17:04:26.136Z,6.00
2018-12-08T17:06:54.716Z,12.80
2018-12-08T17:09:23.276Z,9.10
2018-12-08T17:11:52.869Z,8.00
2018-12-08T17:14:21.420Z,6.10
2018-12-08T17:16:49.993Z,7.57
2018-12-08T17:19:18.623Z,7.47
2018-12-08T17:21:47.213Z,6.63
2018-12-08T17:24:15.792Z,6.40
2018-12-08T17:26:44.400Z,9.03
2018-12-08T17:29:13.003Z,7.00
2018-12-08T17:31:41.701Z,6.47
2018-12-08T17:34:10.505Z,7.50
2018-12-08T17:36:39.089Z,7.93
2018-12-08T17:39:08.196Z,6.90
2018-12-08T17:41:36.809Z,6.63
2018-12-08T17:44:05.429Z,9.37
2018-12-08T17:46:34.008Z,6.97
2018-12-08T17:49:02.702Z,6.87
2018-12-08T17:51:31.307Z,7.90
2018-12-08T17:54:02.640Z,6.03
2018-12-08T17:56:31.460Z,9.30
2018-12-08T17:59:00.057Z,7.23
2018-12-08T18:01:28.798Z,11.30
2018-12-08T18:03:57.373Z,7.17
2018-12-08T18:06:26.109Z,6.60
2018-12-08T18:08:54.721Z,9.07
2018-12-08T18:11:23.296Z,6.10
2018-12-08T18:13:51.832Z,6.47
2018-12-08T18:16:20.460Z,6.93
2018-12-08T18:18:49.022Z,5.80
2018-12-08T18:21:17.728Z,7.27
2018-12-08T18:23:46.403Z,6.20
2018-12-08T18:26:15.096Z,8.07
2018-12-08T18:28:43.627Z,5.97
2018-12-08T18:31:12.259Z,7.30
2018-12-08T18:33:40.832Z,4.50
2018-12-08T18:36:09.410Z,9.00
2018-12-08T18:38:38.076Z,6.17
2018-12-08T18:41:06.712Z,7.07
2018-12-08T18:43:35.297Z,5.63
2018-12-08T18:46:04.158Z,5.33
2018-12-08T18:48:32.740Z,6.30
2018-12-08T18:51:01.344Z,6.20
2018-12-08T18:53:29.929Z,5.77
2018-12-08T18:55:58.532Z,5.10
2018-12-08T18:58:27.129Z,5.00
2018-12-08T19:00:55.711Z,6.73
2018-12-08T19:03:24.303Z,5.17
2018-12-08T19:05:52.864Z,5.17
2018-12-08T19:08:21.452Z,8.10
2018-12-08T19:10:50.088Z,5.93
2018-12-08T19:13:19.484Z,5.90
2018-12-08T19:15:48.044Z,5.10
2018-12-08T19:18:16.629Z,4.63
2018-12-08T19:20:45.537Z,4.50
2018-12-08T19:23:14.505Z,5.03
2018-12-08T19:25:43.508Z,7.77
2018-12-08T19:28:12.075Z,4.27
2018-12-08T19:30:40.648Z,4.67
2018-12-08T19:33:14.481Z,5.10
2018-12-08T19:35:39.840Z,3.10
2018-12-08T19:38:08.392Z,6.93
2018-12-08T19:40:37.025Z,5.10
2018-12-08T19:43:05.604Z,4.00
2018-12-08T19:45:34.203Z,4.80
2018-12-08T19:48:02.756Z,5.47
2018-12-08T19:50:31.371Z,7.07
2018-12-08T19:53:00.048Z,3.60
2018-12-08T19:55:28.640Z,4.37
2018-12-08T19:57:57.213Z,4.00
2018-12-08T20:00:25.796Z,6.30
2018-12-08T20:02:54.424Z,6.37
2018-12-08T20:05:23.149Z,4.10
2018-12-08T20:07:51.713Z,5.17
2018-12-08T20:10:20.312Z,4.40
2018-12-08T20:12:48.887Z,8.40
2018-12-08T20:15:17.592Z,5.83
2018-12-08T20:17:46.192Z,5.47
2018-12-08T20:20:14.768Z,3.53
2018-12-08T20:22:43.354Z,5.37
2018-12-08T20:25:11.936Z,4.00
2018-12-08T20:27:40.529Z,4.90
2018-12-08T20:30:10.060Z,3.80
2018-12-08T20:32:38.634Z,4.63
2018-12-08T20:35:07.473Z,6.43
2018-12-08T20:37:36.056Z,4.10
2018-12-08T20:40:05.807Z,3.70
2018-12-08T20:42:35.216Z,4.33
2018-12-08T20:45:05.937Z,4.87
2018-12-08T20:47:34.544Z,7.40
2018-12-08T20:50:03.243Z,4.60
2018-12-08T20:52:31.841Z,6.70
2018-12-08T20:55:00.416Z,3.83
2018-12-08T20:57:29.000Z,4.10
2018-12-08T20:59:57.588Z,7.33
2018-12-08T21:02:26.160Z,6.80
2018-12-08T21:04:54.741Z,4.10
2018-12-08T21:07:23.317Z,5.60
2018-12-08T21:09:51.852Z,4.87
2018-12-08T21:12:20.583Z,5.50
2018-12-08T21:14:49.177Z,4.87
2018-12-08T21:17:17.793Z,4.57
2018-12-08T21:19:46.422Z,3.80
2018-12-08T21:22:15.032Z,7.10
2018-12-08T21:24:43.683Z,6.00
2018-12-08T21:27:12.285Z,5.10
2018-12-08T21:29:40.849Z,9.80
2018-12-08T21:32:10.974Z,4.50
2018-12-08T21:34:40.605Z,3.80
2018-12-08T21:37:09.170Z,5.70
2018-12-08T21:39:37.742Z,3.80
2018-12-08T21:42:06.333Z,5.23
2018-12-08T21:44:34.897Z,5.20
2018-12-08T21:47:03.472Z,7.53
2018-12-08T21:49:32.049Z,5.43
2018-12-08T21:52:00.614Z,5.30
2018-12-08T21:54:29.201Z,5.57
2018-12-08T21:56:57.833Z,3.67
2018-12-08T21:59:26.421Z,3.57
2018-12-08T22:01:55.389Z,4.00
2018-12-08T22:04:23.978Z,4.00
2018-12-08T22:06:52.565Z,4.03
2018-12-08T22:09:21.148Z,5.33
2018-12-08T22:11:49.756Z,4.37
2018-12-08T22:14:18.318Z,3.40
2018-12-08T22:16:47.227Z,3.87
2018-12-08T22:19:15.804Z,4.50
2018-12-08T22:21:44.407Z,5.10
2018-12-08T22:24:12.973Z,3.60
2018-12-08T22:26:41.556Z,4.47
2018-12-08T22:29:10.119Z,4.60
2018-12-08T22:31:38.693Z,4.43
2018-12-08T22:34:07.287Z,4.70
2018-12-08T22:36:35.845Z,6.23
2018-12-08T22:39:06.904Z,6.43
2018-12-08T22:41:35.899Z,4.50
2018-12-08T22:44:04.482Z,4.67
2018-12-08T22:46:33.080Z,5.33
2018-12-08T22:49:01.805Z,2.97
2018-12-08T22:51:30.376Z,4.33
2018-12-08T22:53:58.961Z,5.13
2018-12-08T22:56:27.557Z,3.83
2018-12-08T22:58:56.117Z,3.50
2018-12-08T23:01:24.984Z,5.70
2018-12-08T23:03:53.561Z,3.60
2018-12-08T23:06:22.169Z,5.47
2018-12-08T23:08:50.769Z,4.17
2018-12-08T23:11:20.573Z,3.70
2018-12-08T23:13:49.432Z,4.20
2018-12-08T23:16:18.048Z,3.40
2018-12-08T23:18:46.632Z,4.87
2018-12-08T23:21:15.201Z,4.07
2018-12-08T23:23:43.781Z,2.80
2018-12-08T23:26:12.353Z,2.60
2018-12-08T23:28:40.952Z,7.30
2018-12-08T23:31:09.553Z,3.57
2018-12-08T23:33:38.073Z,2.80
2018-12-08T23:36:06.742Z,4.97
2018-12-08T23:38:35.309Z,3.93
2018-12-08T23:41:03.877Z,2.90
2018-12-08T23:43:32.462Z,3.17
2018-12-08T23:46:01.032Z,5.13
2018-12-08T23:48:29.633Z,4.13
2018-12-08T23:50:58.580Z,4.90
2018-12-08T23:53:27.404Z,3.53
2018-12-08T23:55:56.299Z,4.03
2018-12-08T23:58:25.123Z,3.03
